sensor_id;sensor_type;location;lat;lon;timestamp;temperature;humidity
7196;DHT22;3639;51.308;5.624;2022-08-21T00:01:58;15.20;99.90
7196;DHT22;3639;51.308;5.624;2022-08-21T00:04:24;15.20;99.90
7196;DHT22;3639;51.308;5.624;2022-08-21T00:06:51;15.10;99.90
7196;DHT22;3639;51.308;5.624;2022-08-21T00:09:18;15.10;99.90
7196;DHT22;3639;51.308;5.624;2022-08-21T00:11:44;15.10;99.90
7196;DHT22;3639;51.308;5.624;2022-08-21T00:14:11;15.10;99.90
7196;DHT22;3639;51.308;5.624;2022-08-21T00:16:38;15.00;99.90
7196;DHT22;3639;51.308;5.624;2022-08-21T00:19:04;14.90;99.90
7196;DHT22;3639;51.308;5.624;2022-08-21T00:21:29;14.90;99.90
7196;DHT22;3639;51.308;5.624;2022-08-21T00:23:55;14.90;99.90
7196;DHT22;3639;51.308;5.624;2022-08-21T00:26:21;14.80;99.90
7196;DHT22;3639;51.308;5.624;2022-08-21T00:28:46;14.80;99.90
7196;DHT22;3639;51.308;5.624;2022-08-21T00:31:14;14.80;99.90
7196;DHT22;3639;51.308;5.624;2022-08-21T00:33:40;14.80;99.90
7196;DHT22;3639;51.308;5.624;2022-08-21T00:36:06;14.70;99.90
7196;DHT22;3639;51.308;5.624;2022-08-21T00:38:32;14.70;99.90
7196;DHT22;3639;51.308;5.624;2022-08-21T00:41:00;14.80;99.90
7196;DHT22;3639;51.308;5.624;2022-08-21T00:43:30;14.80;99.90
7196;DHT22;3639;51.308;5.624;2022-08-21T00:45:57;14.70;99.90
7196;DHT22;3639;51.308;5.624;2022-08-21T00:48:24;14.70;99.90
7196;DHT22;3639;51.308;5.624;2022-08-21T00:51:15;14.70;99.90
7196;DHT22;3639;51.308;5.624;2022-08-21T00:53:45;14.70;99.90
7196;DHT22;3639;51.308;5.624;2022-08-21T00:56:12;14.60;99.90
7196;DHT22;3639;51.308;5.624;2022-08-21T00:58:40;14.60;99.90
7196;DHT22;3639;51.308;5.624;2022-08-21T01:01:08;14.50;99.90
7196;DHT22;3639;51.308;5.624;2022-08-21T01:03:34;14.50;99.90
7196;DHT22;3639;51.308;5.624;2022-08-21T01:06:02;14.40;99.90
7196;DHT22;3639;51.308;5.624;2022-08-21T01:08:30;14.30;99.90
7196;DHT22;3639;51.308;5.624;2022-08-21T01:10:57;14.30;99.90
7196;DHT22;3639;51.308;5.624;2022-08-21T01:13:23;14.30;99.90
7196;DHT22;3639;51.308;5.624;2022-08-21T01:15:52;14.40;99.90
7196;DHT22;3639;51.308;5.624;2022-08-21T01:18:20;14.40;99.90
7196;DHT22;3639;51.308;5.624;2022-08-21T01:21:09;14.30;99.90
7196;DHT22;3639;51.308;5.624;2022-08-21T01:23:36;14.30;99.90
7196;DHT22;3639;51.308;5.624;2022-08-21T01:26:04;14.20;99.90
7196;DHT22;3639;51.308;5.624;2022-08-21T01:28:34;14.10;99.90
7196;DHT22;3639;51.308;5.624;2022-08-21T01:31:02;14.10;99.90
7196;DHT22;3639;51.308;5.624;2022-08-21T01:33:30;14.00;99.90
7196;DHT22;3639;51.308;5.624;2022-08-21T01:35:56;14.10;99.90
7196;DHT22;3639;51.308;5.624;2022-08-21T01:38:21;14.00;99.90
7196;DHT22;3639;51.308;5.624;2022-08-21T01:40:48;14.00;99.90
7196;DHT22;3639;51.308;5.624;2022-08-21T01:43:14;14.00;99.90
7196;DHT22;3639;51.308;5.624;2022-08-21T01:45:39;14.00;99.90
7196;DHT22;3639;51.308;5.624;2022-08-21T01:48:05;14.00;99.90
7196;DHT22;3639;51.308;5.624;2022-08-21T01:50:30;13.90;99.90
7196;DHT22;3639;51.308;5.624;2022-08-21T01:52:56;13.90;99.90
7196;DHT22;3639;51.308;5.624;2022-08-21T01:55:22;14.00;99.90
7196;DHT22;3639;51.308;5.624;2022-08-21T01:57:48;14.00;99.90
7196;DHT22;3639;51.308;5.624;2022-08-21T02:00:17;14.00;99.90
7196;DHT22;3639;51.308;5.624;2022-08-21T02:02:43;13.90;99.90
7196;DHT22;3639;51.308;5.624;2022-08-21T02:05:11;13.90;99.90
7196;DHT22;3639;51.308;5.624;2022-08-21T02:07:39;13.90;99.90
7196;DHT22;3639;51.308;5.624;2022-08-21T02:10:06;13.90;99.90
7196;DHT22;3639;51.308;5.624;2022-08-21T02:12:33;13.80;99.90
7196;DHT22;3639;51.308;5.624;2022-08-21T02:14:58;13.80;99.90
7196;DHT22;3639;51.308;5.624;2022-08-21T02:17:24;13.80;99.90
7196;DHT22;3639;51.308;5.624;2022-08-21T02:19:50;13.80;99.90
7196;DHT22;3639;51.308;5.624;2022-08-21T02:22:15;13.70;99.90
7196;DHT22;3639;51.308;5.624;2022-08-21T02:24:41;13.70;99.90
7196;DHT22;3639;51.308;5.624;2022-08-21T02:27:06;13.70;99.90
7196;DHT22;3639;51.308;5.624;2022-08-21T02:29:32;13.70;99.90
7196;DHT22;3639;51.308;5.624;2022-08-21T02:31:58;13.70;99.90
7196;DHT22;3639;51.308;5.624;2022-08-21T02:34:24;13.70;99.90
7196;DHT22;3639;51.308;5.624;2022-08-21T02:36:49;13.70;99.90
7196;DHT22;3639;51.308;5.624;2022-08-21T02:39:15;13.70;99.90
7196;DHT22;3639;51.308;5.624;2022-08-21T02:41:41;13.70;99.90
7196;DHT22;3639;51.308;5.624;2022-08-21T02:44:06;13.60;99.90
7196;DHT22;3639;51.308;5.624;2022-08-21T02:46:32;13.60;99.90
7196;DHT22;3639;51.308;5.624;2022-08-21T02:49:00;13.60;99.90
7196;DHT22;3639;51.308;5.624;2022-08-21T02:51:26;13.60;99.90
7196;DHT22;3639;51.308;5.624;2022-08-21T02:53:52;13.60;99.90
7196;DHT22;3639;51.308;5.624;2022-08-21T02:56:19;13.60;99.90
7196;DHT22;3639;51.308;5.624;2022-08-21T02:58:48;13.50;99.90
7196;DHT22;3639;51.308;5.624;2022-08-21T03:01:15;13.50;99.90
7196;DHT22;3639;51.308;5.624;2022-08-21T03:03:42;13.50;99.90
7196;DHT22;3639;51.308;5.624;2022-08-21T03:06:10;13.40;99.90
7196;DHT22;3639;51.308;5.624;2022-08-21T03:08:37;13.40;99.90
7196;DHT22;3639;51.308;5.624;2022-08-21T03:11:03;13.40;99.90
7196;DHT22;3639;51.308;5.624;2022-08-21T03:13:29;13.30;99.90
7196;DHT22;3639;51.308;5.624;2022-08-21T03:15:55;13.30;99.90
7196;DHT22;3639;51.308;5.624;2022-08-21T03:18:21;13.20;99.90
7196;DHT22;3639;51.308;5.624;2022-08-21T03:20:47;13.20;99.90
7196;DHT22;3639;51.308;5.624;2022-08-21T03:23:14;13.20;99.90
7196;DHT22;3639;51.308;5.624;2022-08-21T03:25:41;13.10;99.90
7196;DHT22;3639;51.308;5.624;2022-08-21T03:28:10;13.10;99.90
7196;DHT22;3639;51.308;5.624;2022-08-21T03:30:36;13.10;99.90
7196;DHT22;3639;51.308;5.624;2022-08-21T03:33:01;13.00;99.90
7196;DHT22;3639;51.308;5.624;2022-08-21T03:35:28;13.00;99.90
7196;DHT22;3639;51.308;5.624;2022-08-21T03:37:54;13.00;99.90
7196;DHT22;3639;51.308;5.624;2022-08-21T03:40:21;12.90;99.90
7196;DHT22;3639;51.308;5.624;2022-08-21T03:42:48;12.90;99.90
7196;DHT22;3639;51.308;5.624;2022-08-21T03:45:17;12.90;99.90
7196;DHT22;3639;51.308;5.624;2022-08-21T03:47:58;12.90;99.90
7196;DHT22;3639;51.308;5.624;2022-08-21T03:50:28;13.00;99.90
7196;DHT22;3639;51.308;5.624;2022-08-21T03:52:54;13.00;99.90
7196;DHT22;3639;51.308;5.624;2022-08-21T03:55:20;12.90;99.90
7196;DHT22;3639;51.308;5.624;2022-08-21T03:57:46;12.90;99.90
7196;DHT22;3639;51.308;5.624;2022-08-21T04:00:14;12.90;99.90
7196;DHT22;3639;51.308;5.624;2022-08-21T04:02:40;12.80;99.90
7196;DHT22;3639;51.308;5.624;2022-08-21T04:05:07;12.80;99.90
7196;DHT22;3639;51.308;5.624;2022-08-21T04:07:33;12.80;99.90
7196;DHT22;3639;51.308;5.624;2022-08-21T04:09:59;12.80;99.90
7196;DHT22;3639;51.308;5.624;2022-08-21T04:12:24;12.90;99.90
7196;DHT22;3639;51.308;5.624;2022-08-21T04:14:50;12.90;99.90
7196;DHT22;3639;51.308;5.624;2022-08-21T04:17:18;12.90;99.90
7196;DHT22;3639;51.308;5.624;2022-08-21T04:19:44;12.90;99.90
7196;DHT22;3639;51.308;5.624;2022-08-21T04:22:11;12.90;99.90
7196;DHT22;3639;51.308;5.624;2022-08-21T04:24:37;12.80;99.90
7196;DHT22;3639;51.308;5.624;2022-08-21T04:27:03;12.80;99.90
7196;DHT22;3639;51.308;5.624;2022-08-21T04:29:28;12.80;99.90
7196;DHT22;3639;51.308;5.624;2022-08-21T04:31:54;12.80;99.90
7196;DHT22;3639;51.308;5.624;2022-08-21T04:34:20;12.80;99.90
7196;DHT22;3639;51.308;5.624;2022-08-21T04:36:46;12.80;99.90
7196;DHT22;3639;51.308;5.624;2022-08-21T04:39:11;12.80;99.90
7196;DHT22;3639;51.308;5.624;2022-08-21T04:41:37;12.80;99.90
7196;DHT22;3639;51.308;5.624;2022-08-21T04:44:03;12.80;99.90
7196;DHT22;3639;51.308;5.624;2022-08-21T04:46:29;12.80;99.90
7196;DHT22;3639;51.308;5.624;2022-08-21T04:48:55;12.80;99.90
7196;DHT22;3639;51.308;5.624;2022-08-21T04:51:29;12.90;99.90
7196;DHT22;3639;51.308;5.624;2022-08-21T04:54:06;12.90;99.90
7196;DHT22;3639;51.308;5.624;2022-08-21T04:59:02;12.90;99.90
7196;DHT22;3639;51.308;5.624;2022-08-21T05:01:32;12.90;99.90
7196;DHT22;3639;51.308;5.624;2022-08-21T05:04:00;12.90;99.90
7196;DHT22;3639;51.308;5.624;2022-08-21T05:06:32;12.90;99.90
7196;DHT22;3639;51.308;5.624;2022-08-21T05:08:59;12.90;99.90
7196;DHT22;3639;51.308;5.624;2022-08-21T05:11:25;12.90;99.90
7196;DHT22;3639;51.308;5.624;2022-08-21T05:13:50;12.90;99.90
7196;DHT22;3639;51.308;5.624;2022-08-21T05:16:16;12.90;99.90
7196;DHT22;3639;51.308;5.624;2022-08-21T05:18:43;13.00;99.90
7196;DHT22;3639;51.308;5.624;2022-08-21T05:21:09;12.90;99.90
7196;DHT22;3639;51.308;5.624;2022-08-21T05:23:35;12.90;99.90
7196;DHT22;3639;51.308;5.624;2022-08-21T05:26:02;12.90;99.90
7196;DHT22;3639;51.308;5.624;2022-08-21T05:28:27;12.90;99.90
7196;DHT22;3639;51.308;5.624;2022-08-21T05:30:53;12.90;99.90
7196;DHT22;3639;51.308;5.624;2022-08-21T05:33:19;12.90;99.90
7196;DHT22;3639;51.308;5.624;2022-08-21T05:35:45;12.90;99.90
7196;DHT22;3639;51.308;5.624;2022-08-21T05:38:11;13.00;99.90
7196;DHT22;3639;51.308;5.624;2022-08-21T05:40:36;13.10;99.90
7196;DHT22;3639;51.308;5.624;2022-08-21T05:43:02;13.10;99.90
7196;DHT22;3639;51.308;5.624;2022-08-21T05:45:31;13.10;99.90
7196;DHT22;3639;51.308;5.624;2022-08-21T05:47:57;13.20;99.90
7196;DHT22;3639;51.308;5.624;2022-08-21T05:50:23;13.30;99.90
7196;DHT22;3639;51.308;5.624;2022-08-21T05:52:49;13.30;99.90
7196;DHT22;3639;51.308;5.624;2022-08-21T05:55:15;13.40;99.90
7196;DHT22;3639;51.308;5.624;2022-08-21T05:57:40;13.50;99.90
7196;DHT22;3639;51.308;5.624;2022-08-21T06:00:08;13.50;99.90
7196;DHT22;3639;51.308;5.624;2022-08-21T06:02:35;13.60;99.90
7196;DHT22;3639;51.308;5.624;2022-08-21T06:05:01;13.60;99.90
7196;DHT22;3639;51.308;5.624;2022-08-21T06:07:27;13.80;99.90
7196;DHT22;3639;51.308;5.624;2022-08-21T06:09:52;13.80;99.90
7196;DHT22;3639;51.308;5.624;2022-08-21T06:12:18;13.90;99.90
7196;DHT22;3639;51.308;5.624;2022-08-21T06:14:44;14.00;99.90
7196;DHT22;3639;51.308;5.624;2022-08-21T06:17:11;14.10;99.90
7196;DHT22;3639;51.308;5.624;2022-08-21T06:19:37;14.20;99.90
7196;DHT22;3639;51.308;5.624;2022-08-21T06:22:03;14.30;99.90
7196;DHT22;3639;51.308;5.624;2022-08-21T06:24:29;14.30;99.90
7196;DHT22;3639;51.308;5.624;2022-08-21T06:26:56;14.50;99.90
7196;DHT22;3639;51.308;5.624;2022-08-21T06:29:22;14.60;99.90
7196;DHT22;3639;51.308;5.624;2022-08-21T06:31:50;14.60;99.90
7196;DHT22;3639;51.308;5.624;2022-08-21T06:34:17;14.90;99.90
7196;DHT22;3639;51.308;5.624;2022-08-21T06:36:43;15.10;99.90
7196;DHT22;3639;51.308;5.624;2022-08-21T06:39:11;15.20;99.90
7196;DHT22;3639;51.308;5.624;2022-08-21T06:41:39;15.40;99.90
7196;DHT22;3639;51.308;5.624;2022-08-21T06:44:06;15.60;99.90
7196;DHT22;3639;51.308;5.624;2022-08-21T06:46:32;15.70;99.90
7196;DHT22;3639;51.308;5.624;2022-08-21T06:48:59;16.00;99.90
7196;DHT22;3639;51.308;5.624;2022-08-21T06:51:25;16.10;99.90
7196;DHT22;3639;51.308;5.624;2022-08-21T06:53:51;16.30;99.90
7196;DHT22;3639;51.308;5.624;2022-08-21T06:56:17;16.40;99.90
7196;DHT22;3639;51.308;5.624;2022-08-21T06:58:44;16.50;99.90
7196;DHT22;3639;51.308;5.624;2022-08-21T07:01:10;16.60;99.90
7196;DHT22;3639;51.308;5.624;2022-08-21T07:03:41;16.60;99.90
7196;DHT22;3639;51.308;5.624;2022-08-21T07:06:08;16.80;99.90
7196;DHT22;3639;51.308;5.624;2022-08-21T07:08:35;16.90;99.90
7196;DHT22;3639;51.308;5.624;2022-08-21T07:11:04;16.90;99.90
7196;DHT22;3639;51.308;5.624;2022-08-21T07:13:32;17.10;99.90
7196;DHT22;3639;51.308;5.624;2022-08-21T07:15:58;17.20;99.90
7196;DHT22;3639;51.308;5.624;2022-08-21T07:18:25;17.40;99.90
7196;DHT22;3639;51.308;5.624;2022-08-21T07:20:50;17.40;99.90
7196;DHT22;3639;51.308;5.624;2022-08-21T07:23:24;17.60;99.90
7196;DHT22;3639;51.308;5.624;2022-08-21T07:25:51;17.80;99.90
7196;DHT22;3639;51.308;5.624;2022-08-21T07:28:17;18.00;99.90
7196;DHT22;3639;51.308;5.624;2022-08-21T07:30:42;18.20;99.90
7196;DHT22;3639;51.308;5.624;2022-08-21T07:33:08;18.40;99.90
7196;DHT22;3639;51.308;5.624;2022-08-21T07:35:34;18.50;99.90
7196;DHT22;3639;51.308;5.624;2022-08-21T07:37:59;18.60;99.90
7196;DHT22;3639;51.308;5.624;2022-08-21T07:40:25;18.70;99.90
7196;DHT22;3639;51.308;5.624;2022-08-21T07:42:51;18.80;99.90
7196;DHT22;3639;51.308;5.624;2022-08-21T07:45:19;18.90;99.90
7196;DHT22;3639;51.308;5.624;2022-08-21T07:47:46;19.10;99.90
7196;DHT22;3639;51.308;5.624;2022-08-21T07:50:13;19.20;99.90
7196;DHT22;3639;51.308;5.624;2022-08-21T07:52:40;19.20;99.90
7196;DHT22;3639;51.308;5.624;2022-08-21T07:55:08;19.20;99.90
7196;DHT22;3639;51.308;5.624;2022-08-21T07:57:34;19.20;99.90
7196;DHT22;3639;51.308;5.624;2022-08-21T08:00:01;19.30;99.90
7196;DHT22;3639;51.308;5.624;2022-08-21T08:02:28;19.30;99.90
7196;DHT22;3639;51.308;5.624;2022-08-21T08:04:57;19.50;99.90
7196;DHT22;3639;51.308;5.624;2022-08-21T08:07:23;19.70;99.90
7196;DHT22;3639;51.308;5.624;2022-08-21T08:09:48;19.80;99.90
7196;DHT22;3639;51.308;5.624;2022-08-21T08:12:14;20.00;99.90
7196;DHT22;3639;51.308;5.624;2022-08-21T08:14:40;20.10;99.90
7196;DHT22;3639;51.308;5.624;2022-08-21T08:17:05;20.00;99.90
7196;DHT22;3639;51.308;5.624;2022-08-21T08:19:31;19.80;99.90
7196;DHT22;3639;51.308;5.624;2022-08-21T08:21:56;19.80;99.90
7196;DHT22;3639;51.308;5.624;2022-08-21T08:24:22;19.90;99.90
7196;DHT22;3639;51.308;5.624;2022-08-21T08:26:48;20.00;99.90
7196;DHT22;3639;51.308;5.624;2022-08-21T08:29:13;20.10;99.90
7196;DHT22;3639;51.308;5.624;2022-08-21T08:31:39;20.20;99.90
7196;DHT22;3639;51.308;5.624;2022-08-21T08:34:05;20.30;99.90
7196;DHT22;3639;51.308;5.624;2022-08-21T08:36:33;20.20;99.90
7196;DHT22;3639;51.308;5.624;2022-08-21T08:38:59;20.10;99.90
7196;DHT22;3639;51.308;5.624;2022-08-21T08:41:26;20.00;99.90
7196;DHT22;3639;51.308;5.624;2022-08-21T08:43:54;19.90;99.90
7196;DHT22;3639;51.308;5.624;2022-08-21T08:46:30;20.00;99.90
7196;DHT22;3639;51.308;5.624;2022-08-21T08:49:02;20.10;99.90
7196;DHT22;3639;51.308;5.624;2022-08-21T08:54:13;20.50;99.90
7196;DHT22;3639;51.308;5.624;2022-08-21T08:56:39;20.70;99.90
7196;DHT22;3639;51.308;5.624;2022-08-21T08:59:16;20.90;99.90
7196;DHT22;3639;51.308;5.624;2022-08-21T09:01:43;21.30;99.90
7196;DHT22;3639;51.308;5.624;2022-08-21T09:04:10;21.50;99.90
7196;DHT22;3639;51.308;5.624;2022-08-21T09:12:15;22.00;99.90
7196;DHT22;3639;51.308;5.624;2022-08-21T09:14:54;22.00;99.90
7196;DHT22;3639;51.308;5.624;2022-08-21T09:17:39;22.10;99.90
7196;DHT22;3639;51.308;5.624;2022-08-21T09:20:19;22.20;99.90
7196;DHT22;3639;51.308;5.624;2022-08-21T09:25:59;22.60;99.90
7196;DHT22;3639;51.308;5.624;2022-08-21T09:28:25;22.80;99.90
7196;DHT22;3639;51.308;5.624;2022-08-21T09:30:54;22.70;99.90
7196;DHT22;3639;51.308;5.624;2022-08-21T09:33:21;22.80;99.90
7196;DHT22;3639;51.308;5.624;2022-08-21T09:35:53;22.90;99.90
7196;DHT22;3639;51.308;5.624;2022-08-21T09:38:26;22.80;99.90
7196;DHT22;3639;51.308;5.624;2022-08-21T09:41:01;22.70;99.90
7196;DHT22;3639;51.308;5.624;2022-08-21T09:43:27;22.60;99.90
7196;DHT22;3639;51.308;5.624;2022-08-21T09:48:58;22.80;99.90
7196;DHT22;3639;51.308;5.624;2022-08-21T09:51:33;23.00;99.90
7196;DHT22;3639;51.308;5.624;2022-08-21T09:56:34;23.10;99.90
7196;DHT22;3639;51.308;5.624;2022-08-21T09:59:29;23.00;99.90
7196;DHT22;3639;51.308;5.624;2022-08-21T10:02:01;22.90;99.90
7196;DHT22;3639;51.308;5.624;2022-08-21T10:04:33;22.70;99.90
7196;DHT22;3639;51.308;5.624;2022-08-21T10:07:11;22.50;99.90
7196;DHT22;3639;51.308;5.624;2022-08-21T10:09:38;22.40;99.90
7196;DHT22;3639;51.308;5.624;2022-08-21T10:12:20;22.40;99.90
7196;DHT22;3639;51.308;5.624;2022-08-21T10:20:07;22.70;99.90
7196;DHT22;3639;51.308;5.624;2022-08-21T10:22:43;22.80;99.90
7196;DHT22;3639;51.308;5.624;2022-08-21T10:25:19;23.00;99.90
7196;DHT22;3639;51.308;5.624;2022-08-21T10:27:58;23.10;99.90
7196;DHT22;3639;51.308;5.624;2022-08-21T10:30:50;23.30;99.90
7196;DHT22;3639;51.308;5.624;2022-08-21T10:36:18;23.60;99.90
7196;DHT22;3639;51.308;5.624;2022-08-21T10:42:28;23.50;99.90
7196;DHT22;3639;51.308;5.624;2022-08-21T10:45:18;23.60;99.90
7196;DHT22;3639;51.308;5.624;2022-08-21T10:47:52;23.70;99.90
7196;DHT22;3639;51.308;5.624;2022-08-21T10:53:45;24.00;99.90
7196;DHT22;3639;51.308;5.624;2022-08-21T10:56:29;23.90;99.90
7196;DHT22;3639;51.308;5.624;2022-08-21T10:59:44;23.90;99.90
7196;DHT22;3639;51.308;5.624;2022-08-21T11:05:02;24.00;98.80
7196;DHT22;3639;51.308;5.624;2022-08-21T11:07:50;23.90;98.50
7196;DHT22;3639;51.308;5.624;2022-08-21T11:10:25;24.10;99.30
7196;DHT22;3639;51.308;5.624;2022-08-21T11:13:00;24.50;98.80
7196;DHT22;3639;51.308;5.624;2022-08-21T11:20:56;25.20;97.80
7196;DHT22;3639;51.308;5.624;2022-08-21T11:27:00;25.40;96.50
7196;DHT22;3639;51.308;5.624;2022-08-21T11:29:33;25.60;96.30
7196;DHT22;3639;51.308;5.624;2022-08-21T11:43:42;26.00;94.80
7196;DHT22;3639;51.308;5.624;2022-08-21T11:52:41;25.70;94.80
7196;DHT22;3639;51.308;5.624;2022-08-21T11:55:15;25.40;95.00
7196;DHT22;3639;51.308;5.624;2022-08-21T11:57:59;25.10;95.60
7196;DHT22;3639;51.308;5.624;2022-08-21T12:00:36;25.00;95.40
7196;DHT22;3639;51.308;5.624;2022-08-21T12:03:16;24.90;95.70
7196;DHT22;3639;51.308;5.624;2022-08-21T12:05:45;25.00;96.00
7196;DHT22;3639;51.308;5.624;2022-08-21T12:08:35;25.20;95.50
7196;DHT22;3639;51.308;5.624;2022-08-21T12:11:22;25.40;95.50
7196;DHT22;3639;51.308;5.624;2022-08-21T12:14:10;25.70;94.80
7196;DHT22;3639;51.308;5.624;2022-08-21T12:16:39;25.80;94.30
7196;DHT22;3639;51.308;5.624;2022-08-21T12:27:19;26.20;92.60
7196;DHT22;3639;51.308;5.624;2022-08-21T12:29:55;26.30;93.20
7196;DHT22;3639;51.308;5.624;2022-08-21T12:32:46;26.40;93.00
7196;DHT22;3639;51.308;5.624;2022-08-21T12:35:24;26.50;91.60
7196;DHT22;3639;51.308;5.624;2022-08-21T12:38:17;26.50;91.50
7196;DHT22;3639;51.308;5.624;2022-08-21T12:41:05;26.60;91.80
7196;DHT22;3639;51.308;5.624;2022-08-21T12:43:41;26.80;91.10
7196;DHT22;3639;51.308;5.624;2022-08-21T12:46:20;26.80;89.80
7196;DHT22;3639;51.308;5.624;2022-08-21T12:49:32;26.80;90.30
7196;DHT22;3639;51.308;5.624;2022-08-21T12:54:29;26.80;90.50
7196;DHT22;3639;51.308;5.624;2022-08-21T12:56:57;26.90;90.90
7196;DHT22;3639;51.308;5.624;2022-08-21T12:59:23;26.90;90.60
7196;DHT22;3639;51.308;5.624;2022-08-21T13:01:50;26.80;90.60
7196;DHT22;3639;51.308;5.624;2022-08-21T13:04:41;26.70;90.50
7196;DHT22;3639;51.308;5.624;2022-08-21T13:07:11;26.40;90.50
7196;DHT22;3639;51.308;5.624;2022-08-21T13:09:51;26.10;90.70
7196;DHT22;3639;51.308;5.624;2022-08-21T13:12:20;26.10;90.00
7196;DHT22;3639;51.308;5.624;2022-08-21T13:14:47;26.00;89.50
7196;DHT22;3639;51.308;5.624;2022-08-21T13:17:18;25.70;88.80
7196;DHT22;3639;51.308;5.624;2022-08-21T13:20:24;25.40;90.30
7196;DHT22;3639;51.308;5.624;2022-08-21T13:22:50;25.30;90.90
7196;DHT22;3639;51.308;5.624;2022-08-21T13:25:19;25.20;90.80
7196;DHT22;3639;51.308;5.624;2022-08-21T13:28:08;25.20;90.30
7196;DHT22;3639;51.308;5.624;2022-08-21T13:30:39;25.10;90.10
7196;DHT22;3639;51.308;5.624;2022-08-21T13:33:06;25.10;89.00
7196;DHT22;3639;51.308;5.624;2022-08-21T13:38:30;25.00;91.20
7196;DHT22;3639;51.308;5.624;2022-08-21T13:41:12;25.00;91.60
7196;DHT22;3639;51.308;5.624;2022-08-21T13:43:47;25.00;91.70
7196;DHT22;3639;51.308;5.624;2022-08-21T13:46:14;25.00;90.90
7196;DHT22;3639;51.308;5.624;2022-08-21T13:48:41;25.00;91.10
7196;DHT22;3639;51.308;5.624;2022-08-21T13:51:08;25.00;90.10
7196;DHT22;3639;51.308;5.624;2022-08-21T13:53:43;25.00;90.40
7196;DHT22;3639;51.308;5.624;2022-08-21T13:56:22;25.00;90.80
7196;DHT22;3639;51.308;5.624;2022-08-21T13:58:48;25.00;90.50
7196;DHT22;3639;51.308;5.624;2022-08-21T14:01:51;25.00;90.60
7196;DHT22;3639;51.308;5.624;2022-08-21T14:04:38;25.00;90.50
7196;DHT22;3639;51.308;5.624;2022-08-21T14:07:16;25.10;91.10
7196;DHT22;3639;51.308;5.624;2022-08-21T14:09:44;25.20;91.00
7196;DHT22;3639;51.308;5.624;2022-08-21T14:12:16;25.30;91.00
7196;DHT22;3639;51.308;5.624;2022-08-21T14:14:44;25.40;90.60
7196;DHT22;3639;51.308;5.624;2022-08-21T14:17:13;25.40;90.80
7196;DHT22;3639;51.308;5.624;2022-08-21T14:19:43;25.40;90.80
7196;DHT22;3639;51.308;5.624;2022-08-21T14:22:36;25.40;90.00
7196;DHT22;3639;51.308;5.624;2022-08-21T14:25:06;25.30;89.90
7196;DHT22;3639;51.308;5.624;2022-08-21T14:27:35;25.30;90.00
7196;DHT22;3639;51.308;5.624;2022-08-21T14:30:17;25.40;90.80
7196;DHT22;3639;51.308;5.624;2022-08-21T14:32:45;25.60;90.60
7196;DHT22;3639;51.308;5.624;2022-08-21T14:35:10;25.80;89.50
7196;DHT22;3639;51.308;5.624;2022-08-21T14:37:36;25.90;89.20
7196;DHT22;3639;51.308;5.624;2022-08-21T14:40:04;25.90;90.10
7196;DHT22;3639;51.308;5.624;2022-08-21T14:42:30;26.10;90.00
7196;DHT22;3639;51.308;5.624;2022-08-21T14:44:59;26.20;89.30
7196;DHT22;3639;51.308;5.624;2022-08-21T14:47:25;26.10;88.50
7196;DHT22;3639;51.308;5.624;2022-08-21T14:49:50;26.10;88.40
7196;DHT22;3639;51.308;5.624;2022-08-21T14:52:19;26.10;88.50
7196;DHT22;3639;51.308;5.624;2022-08-21T14:54:45;26.10;88.20
7196;DHT22;3639;51.308;5.624;2022-08-21T14:57:11;26.10;88.50
7196;DHT22;3639;51.308;5.624;2022-08-21T14:59:38;26.10;89.00
7196;DHT22;3639;51.308;5.624;2022-08-21T15:02:05;26.10;89.30
7196;DHT22;3639;51.308;5.624;2022-08-21T15:04:31;26.10;88.50
7196;DHT22;3639;51.308;5.624;2022-08-21T15:06:57;26.00;88.80
7196;DHT22;3639;51.308;5.624;2022-08-21T15:09:23;25.90;89.00
7196;DHT22;3639;51.308;5.624;2022-08-21T15:11:50;25.80;88.90
7196;DHT22;3639;51.308;5.624;2022-08-21T15:14:26;25.80;89.80
7196;DHT22;3639;51.308;5.624;2022-08-21T15:16:52;25.80;89.80
7196;DHT22;3639;51.308;5.624;2022-08-21T15:19:18;25.90;89.60
7196;DHT22;3639;51.308;5.624;2022-08-21T15:21:44;26.10;89.40
7196;DHT22;3639;51.308;5.624;2022-08-21T15:24:10;26.10;88.60
7196;DHT22;3639;51.308;5.624;2022-08-21T15:26:36;26.20;88.30
7196;DHT22;3639;51.308;5.624;2022-08-21T15:29:02;26.10;89.00
7196;DHT22;3639;51.308;5.624;2022-08-21T15:31:30;26.20;88.00
7196;DHT22;3639;51.308;5.624;2022-08-21T15:33:55;26.30;88.80
7196;DHT22;3639;51.308;5.624;2022-08-21T15:36:21;26.40;88.80
7196;DHT22;3639;51.308;5.624;2022-08-21T15:38:46;26.40;88.90
7196;DHT22;3639;51.308;5.624;2022-08-21T15:41:12;26.50;86.40
7196;DHT22;3639;51.308;5.624;2022-08-21T15:43:50;26.30;86.90
7196;DHT22;3639;51.308;5.624;2022-08-21T15:46:19;26.30;87.40
7196;DHT22;3639;51.308;5.624;2022-08-21T15:48:45;26.30;87.50
7196;DHT22;3639;51.308;5.624;2022-08-21T15:51:13;26.40;87.40
7196;DHT22;3639;51.308;5.624;2022-08-21T15:53:39;26.40;86.20
7196;DHT22;3639;51.308;5.624;2022-08-21T15:56:26;26.30;86.60
7196;DHT22;3639;51.308;5.624;2022-08-21T15:58:58;26.20;86.20
7196;DHT22;3639;51.308;5.624;2022-08-21T16:01:24;26.10;86.60
7196;DHT22;3639;51.308;5.624;2022-08-21T16:03:52;26.10;86.70
7196;DHT22;3639;51.308;5.624;2022-08-21T16:06:19;26.10;87.00
7196;DHT22;3639;51.308;5.624;2022-08-21T16:08:45;26.20;88.30
7196;DHT22;3639;51.308;5.624;2022-08-21T16:11:12;26.20;86.60
7196;DHT22;3639;51.308;5.624;2022-08-21T16:13:41;26.30;87.50
7196;DHT22;3639;51.308;5.624;2022-08-21T16:16:11;26.20;88.10
7196;DHT22;3639;51.308;5.624;2022-08-21T16:18:38;26.20;89.00
7196;DHT22;3639;51.308;5.624;2022-08-21T16:21:05;26.00;90.00
7196;DHT22;3639;51.308;5.624;2022-08-21T16:23:33;25.90;90.00
7196;DHT22;3639;51.308;5.624;2022-08-21T16:26:01;25.80;90.40
7196;DHT22;3639;51.308;5.624;2022-08-21T16:28:27;25.80;90.30
7196;DHT22;3639;51.308;5.624;2022-08-21T16:30:53;25.80;90.60
7196;DHT22;3639;51.308;5.624;2022-08-21T16:33:38;25.70;90.50
7196;DHT22;3639;51.308;5.624;2022-08-21T16:36:05;25.50;91.10
7196;DHT22;3639;51.308;5.624;2022-08-21T16:38:32;25.30;91.00
7196;DHT22;3639;51.308;5.624;2022-08-21T16:40:59;25.20;91.20
7196;DHT22;3639;51.308;5.624;2022-08-21T16:43:27;25.00;91.30
7196;DHT22;3639;51.308;5.624;2022-08-21T16:45:55;25.00;91.90
7196;DHT22;3639;51.308;5.624;2022-08-21T16:48:21;25.00;91.60
7196;DHT22;3639;51.308;5.624;2022-08-21T16:50:47;24.90;91.80
7196;DHT22;3639;51.308;5.624;2022-08-21T16:53:13;24.80;91.80
7196;DHT22;3639;51.308;5.624;2022-08-21T16:55:39;24.70;92.00
7196;DHT22;3639;51.308;5.624;2022-08-21T16:58:10;24.70;92.20
7196;DHT22;3639;51.308;5.624;2022-08-21T17:00:37;24.60;92.30
7196;DHT22;3639;51.308;5.624;2022-08-21T17:03:03;24.50;92.60
7196;DHT22;3639;51.308;5.624;2022-08-21T17:05:28;24.40;92.50
7196;DHT22;3639;51.308;5.624;2022-08-21T17:07:54;24.30;92.80
7196;DHT22;3639;51.308;5.624;2022-08-21T17:10:20;24.20;93.30
7196;DHT22;3639;51.308;5.624;2022-08-21T17:12:54;24.10;93.40
7196;DHT22;3639;51.308;5.624;2022-08-21T17:15:27;24.00;93.50
7196;DHT22;3639;51.308;5.624;2022-08-21T17:17:54;24.00;93.70
7196;DHT22;3639;51.308;5.624;2022-08-21T17:20:21;24.00;93.90
7196;DHT22;3639;51.308;5.624;2022-08-21T17:22:47;23.80;94.20
7196;DHT22;3639;51.308;5.624;2022-08-21T17:25:13;23.80;94.50
7196;DHT22;3639;51.308;5.624;2022-08-21T17:27:42;23.80;94.50
7196;DHT22;3639;51.308;5.624;2022-08-21T17:30:10;23.80;94.40
7196;DHT22;3639;51.308;5.624;2022-08-21T17:32:37;23.80;94.60
7196;DHT22;3639;51.308;5.624;2022-08-21T17:35:04;23.80;94.70